Reading, Illinois
Current Conditions -  °F | °C
As of 8:55 AM on Wednesday 22 Oct 2014 (Local Time) from KPNT Reporting Station
Clear Clear  
Wind Chill: 39°   Ceiling: Unl
Heat Index: 44°   Visibility: 10mi
Dew Point: 38°   Wind: 8mph
Humidity: 82%   Direction: 90°E
Pressure: 30.37"   Gusts: NA
Location:  41.0465°N, 88.8725°W
Report Text: KPNT 221355Z AUTO 09007KT 10SM CLR 07/04 A3037 RMK AO2 T00650036
Loading
Personal Weather Stations






























Interactive Weather Map
Tropical Storm Tracking
New forecast layout! Learn more

10-Day Weather Forecast

Advertisements
Track Severe Weather on mobile